Terminal Aerodrome Forecast
Issued by NWS Buffalo, NY

Home | Current Version | Previous Version | Text Only | Print | Product List | Glossary On
Versions: 1 2 3 4 5 6 7 8 9 10 11 12 13 14 15 16 17 18 19 20 21 22 23 24 25
000
FTUS41 KBUF 190312 AAA
TAFBUF
TAF AMD
KBUF 190312Z 1903/1924 00000KT 2SM -RA BR FEW008 OVC015
      TEMPO 1903/1905 5SM -RA BR SCT012 OVC020
     FM190500 27013G21KT 6SM -RA OVC007
     FM191000 30019G33KT 4SM -RASN OVC012
     FM191100 31019G33KT P6SM SCT012 OVC020
     FM192300 28016G27KT P6SM BKN035=

USA.gov is the U.S. government's official web portal to all federal, state and local government web resources and services.